sensor_id;sensor_type;location;lat;lon;timestamp;P1;durP1;ratioP1;P2;durP2;ratioP2
76136;SDS011;68622;53.128;17.966;2023-03-26T00:01:12;7.20;;;2.30;;
76136;SDS011;68622;53.128;17.966;2023-03-26T00:03:41;7.80;;;2.80;;
76136;SDS011;68622;53.128;17.966;2023-03-26T00:06:11;7.00;;;2.50;;
76136;SDS011;68622;53.128;17.966;2023-03-26T00:08:40;7.20;;;2.90;;
76136;SDS011;68622;53.128;17.966;2023-03-26T00:11:09;7.70;;;3.00;;
76136;SDS011;68622;53.128;17.966;2023-03-26T00:13:38;7.40;;;3.10;;
76136;SDS011;68622;53.128;17.966;2023-03-26T00:16:06;9.00;;;2.90;;
76136;SDS011;68622;53.128;17.966;2023-03-26T00:18:33;8.80;;;3.10;;
76136;SDS011;68622;53.128;17.966;2023-03-26T00:21:01;8.00;;;2.90;;
76136;SDS011;68622;53.128;17.966;2023-03-26T00:23:31;9.60;;;3.60;;
76136;SDS011;68622;53.128;17.966;2023-03-26T00:25:59;7.90;;;2.70;;
76136;SDS011;68622;53.128;17.966;2023-03-26T00:28:28;8.10;;;2.80;;
76136;SDS011;68622;53.128;17.966;2023-03-26T00:30:56;12.20;;;3.80;;
76136;SDS011;68622;53.128;17.966;2023-03-26T00:33:25;7.30;;;2.40;;
76136;SDS011;68622;53.128;17.966;2023-03-26T00:35:53;10.30;;;3.30;;
76136;SDS011;68622;53.128;17.966;2023-03-26T00:38:21;7.90;;;2.90;;
76136;SDS011;68622;53.128;17.966;2023-03-26T00:40:49;9.10;;;2.80;;
76136;SDS011;68622;53.128;17.966;2023-03-26T00:43:17;9.50;;;3.10;;
76136;SDS011;68622;53.128;17.966;2023-03-26T00:45:50;10.50;;;3.60;;
76136;SDS011;68622;53.128;17.966;2023-03-26T00:48:19;10.70;;;3.30;;
76136;SDS011;68622;53.128;17.966;2023-03-26T00:50:47;9.00;;;3.30;;
76136;SDS011;68622;53.128;17.966;2023-03-26T00:53:16;8.50;;;3.00;;
76136;SDS011;68622;53.128;17.966;2023-03-26T00:55:45;9.70;;;3.20;;
76136;SDS011;68622;53.128;17.966;2023-03-26T00:58:13;7.20;;;2.90;;
76136;SDS011;68622;53.128;17.966;2023-03-26T01:00:42;9.00;;;3.00;;
76136;SDS011;68622;53.128;17.966;2023-03-26T01:03:10;8.20;;;2.90;;
76136;SDS011;68622;53.128;17.966;2023-03-26T01:05:41;9.80;;;3.60;;
76136;SDS011;68622;53.128;17.966;2023-03-26T01:10:52;7.80;;;2.30;;
76136;SDS011;68622;53.128;17.966;2023-03-26T01:13:30;7.90;;;2.80;;
76136;SDS011;68622;53.128;17.966;2023-03-26T01:15:59;9.00;;;3.30;;
76136;SDS011;68622;53.128;17.966;2023-03-26T01:18:29;9.70;;;2.80;;
76136;SDS011;68622;53.128;17.966;2023-03-26T01:21:00;10.50;;;3.00;;
76136;SDS011;68622;53.128;17.966;2023-03-26T01:23:42;8.40;;;2.40;;
76136;SDS011;68622;53.128;17.966;2023-03-26T01:26:28;8.90;;;2.30;;
76136;SDS011;68622;53.128;17.966;2023-03-26T01:29:04;6.60;;;1.90;;
76136;SDS011;68622;53.128;17.966;2023-03-26T01:40:27;7.00;;;1.90;;
76136;SDS011;68622;53.128;17.966;2023-03-26T01:43:14;7.20;;;1.80;;
76136;SDS011;68622;53.128;17.966;2023-03-26T01:45:49;6.30;;;1.60;;
76136;SDS011;68622;53.128;17.966;2023-03-26T01:48:17;5.50;;;1.50;;
76136;SDS011;68622;53.128;17.966;2023-03-26T01:50:44;5.50;;;1.40;;
76136;SDS011;68622;53.128;17.966;2023-03-26T01:53:11;5.70;;;2.00;;
76136;SDS011;68622;53.128;17.966;2023-03-26T01:55:49;7.70;;;1.70;;
76136;SDS011;68622;53.128;17.966;2023-03-26T02:01:36;7.30;;;1.70;;
76136;SDS011;68622;53.128;17.966;2023-03-26T02:07:30;6.40;;;1.60;;
76136;SDS011;68622;53.128;17.966;2023-03-26T02:10:07;6.80;;;2.10;;
76136;SDS011;68622;53.128;17.966;2023-03-26T02:12:40;7.40;;;2.20;;
76136;SDS011;68622;53.128;17.966;2023-03-26T02:15:10;5.50;;;1.40;;
76136;SDS011;68622;53.128;17.966;2023-03-26T02:17:37;6.10;;;1.60;;
76136;SDS011;68622;53.128;17.966;2023-03-26T02:20:06;5.20;;;1.30;;
76136;SDS011;68622;53.128;17.966;2023-03-26T02:22:36;4.90;;;1.20;;
76136;SDS011;68622;53.128;17.966;2023-03-26T02:25:12;8.20;;;2.20;;
76136;SDS011;68622;53.128;17.966;2023-03-26T02:27:41;5.70;;;1.50;;
76136;SDS011;68622;53.128;17.966;2023-03-26T02:30:12;5.30;;;1.10;;
76136;SDS011;68622;53.128;17.966;2023-03-26T02:32:41;3.10;;;0.70;;
76136;SDS011;68622;53.128;17.966;2023-03-26T02:35:10;5.00;;;0.80;;
76136;SDS011;68622;53.128;17.966;2023-03-26T02:37:38;3.90;;;1.00;;
76136;SDS011;68622;53.128;17.966;2023-03-26T02:40:13;5.30;;;0.70;;
76136;SDS011;68622;53.128;17.966;2023-03-26T02:42:41;4.80;;;0.80;;
76136;SDS011;68622;53.128;17.966;2023-03-26T02:45:08;3.90;;;0.70;;
76136;SDS011;68622;53.128;17.966;2023-03-26T02:47:54;4.00;;;0.80;;
76136;SDS011;68622;53.128;17.966;2023-03-26T02:50:39;6.00;;;0.90;;
76136;SDS011;68622;53.128;17.966;2023-03-26T02:53:23;2.70;;;0.70;;
76136;SDS011;68622;53.128;17.966;2023-03-26T02:55:59;4.20;;;0.90;;
76136;SDS011;68622;53.128;17.966;2023-03-26T02:58:27;5.20;;;1.10;;
76136;SDS011;68622;53.128;17.966;2023-03-26T03:00:55;4.40;;;1.40;;
76136;SDS011;68622;53.128;17.966;2023-03-26T03:03:34;3.60;;;1.00;;
76136;SDS011;68622;53.128;17.966;2023-03-26T03:06:22;4.90;;;0.60;;
76136;SDS011;68622;53.128;17.966;2023-03-26T03:08:55;3.50;;;0.90;;
76136;SDS011;68622;53.128;17.966;2023-03-26T03:11:34;6.60;;;1.40;;
76136;SDS011;68622;53.128;17.966;2023-03-26T03:14:01;3.70;;;1.10;;
76136;SDS011;68622;53.128;17.966;2023-03-26T03:16:30;4.50;;;1.00;;
76136;SDS011;68622;53.128;17.966;2023-03-26T03:18:59;3.80;;;1.00;;
76136;SDS011;68622;53.128;17.966;2023-03-26T03:21:34;4.60;;;1.30;;
76136;SDS011;68622;53.128;17.966;2023-03-26T03:24:01;3.30;;;1.00;;
76136;SDS011;68622;53.128;17.966;2023-03-26T03:26:30;5.30;;;1.30;;
76136;SDS011;68622;53.128;17.966;2023-03-26T03:29:01;5.50;;;1.60;;
76136;SDS011;68622;53.128;17.966;2023-03-26T03:31:28;4.90;;;1.30;;
76136;SDS011;68622;53.128;17.966;2023-03-26T03:33:59;5.30;;;1.20;;
76136;SDS011;68622;53.128;17.966;2023-03-26T03:36:26;5.40;;;1.50;;
76136;SDS011;68622;53.128;17.966;2023-03-26T03:39:01;5.00;;;1.50;;
76136;SDS011;68622;53.128;17.966;2023-03-26T03:41:28;5.70;;;1.30;;
76136;SDS011;68622;53.128;17.966;2023-03-26T03:43:55;4.60;;;1.30;;
76136;SDS011;68622;53.128;17.966;2023-03-26T03:46:27;4.70;;;1.20;;
76136;SDS011;68622;53.128;17.966;2023-03-26T03:48:54;6.50;;;1.70;;
76136;SDS011;68622;53.128;17.966;2023-03-26T03:51:25;4.50;;;1.20;;
76136;SDS011;68622;53.128;17.966;2023-03-26T03:54:12;5.10;;;1.40;;
76136;SDS011;68622;53.128;17.966;2023-03-26T03:56:45;6.00;;;1.30;;
76136;SDS011;68622;53.128;17.966;2023-03-26T03:59:37;5.60;;;1.30;;
76136;SDS011;68622;53.128;17.966;2023-03-26T04:02:06;3.70;;;1.20;;
76136;SDS011;68622;53.128;17.966;2023-03-26T04:04:40;4.00;;;1.00;;
76136;SDS011;68622;53.128;17.966;2023-03-26T04:07:12;4.30;;;1.50;;
76136;SDS011;68622;53.128;17.966;2023-03-26T04:09:59;4.30;;;1.10;;
76136;SDS011;68622;53.128;17.966;2023-03-26T04:12:29;4.90;;;1.10;;
76136;SDS011;68622;53.128;17.966;2023-03-26T04:15:06;4.00;;;1.10;;
76136;SDS011;68622;53.128;17.966;2023-03-26T04:17:33;5.00;;;1.20;;
76136;SDS011;68622;53.128;17.966;2023-03-26T04:20:11;5.40;;;1.20;;
76136;SDS011;68622;53.128;17.966;2023-03-26T04:22:43;7.10;;;1.20;;
76136;SDS011;68622;53.128;17.966;2023-03-26T04:25:12;5.30;;;1.30;;
76136;SDS011;68622;53.128;17.966;2023-03-26T04:27:48;4.70;;;1.30;;
76136;SDS011;68622;53.128;17.966;2023-03-26T04:30:22;7.20;;;2.50;;
76136;SDS011;68622;53.128;17.966;2023-03-26T04:32:53;6.20;;;1.80;;
76136;SDS011;68622;53.128;17.966;2023-03-26T04:35:24;5.30;;;1.50;;
76136;SDS011;68622;53.128;17.966;2023-03-26T04:37:53;5.70;;;1.60;;
76136;SDS011;68622;53.128;17.966;2023-03-26T04:40:26;5.30;;;1.70;;
76136;SDS011;68622;53.128;17.966;2023-03-26T04:43:14;6.40;;;1.40;;
76136;SDS011;68622;53.128;17.966;2023-03-26T04:46:04;4.40;;;1.40;;
76136;SDS011;68622;53.128;17.966;2023-03-26T04:48:36;5.90;;;1.60;;
76136;SDS011;68622;53.128;17.966;2023-03-26T04:51:07;4.30;;;1.40;;
76136;SDS011;68622;53.128;17.966;2023-03-26T04:53:50;7.10;;;1.90;;
76136;SDS011;68622;53.128;17.966;2023-03-26T04:56:43;5.60;;;1.80;;
76136;SDS011;68622;53.128;17.966;2023-03-26T04:59:54;7.20;;;2.00;;
76136;SDS011;68622;53.128;17.966;2023-03-26T05:02:21;12.20;;;1.90;;
76136;SDS011;68622;53.128;17.966;2023-03-26T05:04:52;4.80;;;1.70;;
76136;SDS011;68622;53.128;17.966;2023-03-26T05:07:20;8.10;;;2.00;;
76136;SDS011;68622;53.128;17.966;2023-03-26T05:09:53;7.10;;;2.10;;
76136;SDS011;68622;53.128;17.966;2023-03-26T05:12:31;4.60;;;1.40;;
76136;SDS011;68622;53.128;17.966;2023-03-26T05:15:15;4.50;;;1.50;;
76136;SDS011;68622;53.128;17.966;2023-03-26T05:17:57;7.60;;;1.70;;
76136;SDS011;68622;53.128;17.966;2023-03-26T05:20:38;5.90;;;2.00;;
76136;SDS011;68622;53.128;17.966;2023-03-26T05:23:07;5.60;;;1.90;;
76136;SDS011;68622;53.128;17.966;2023-03-26T05:25:36;6.50;;;1.90;;
76136;SDS011;68622;53.128;17.966;2023-03-26T05:28:05;5.90;;;1.70;;
76136;SDS011;68622;53.128;17.966;2023-03-26T05:30:41;5.70;;;1.80;;
76136;SDS011;68622;53.128;17.966;2023-03-26T05:33:09;6.40;;;1.60;;
76136;SDS011;68622;53.128;17.966;2023-03-26T05:35:41;5.90;;;1.50;;
76136;SDS011;68622;53.128;17.966;2023-03-26T05:38:08;6.90;;;2.50;;
76136;SDS011;68622;53.128;17.966;2023-03-26T05:40:36;7.40;;;2.30;;
76136;SDS011;68622;53.128;17.966;2023-03-26T05:43:04;8.10;;;2.80;;
76136;SDS011;68622;53.128;17.966;2023-03-26T05:45:38;11.30;;;3.00;;
76136;SDS011;68622;53.128;17.966;2023-03-26T05:48:23;7.20;;;3.00;;
76136;SDS011;68622;53.128;17.966;2023-03-26T05:50:51;7.70;;;2.90;;
76136;SDS011;68622;53.128;17.966;2023-03-26T05:53:20;7.40;;;2.70;;
76136;SDS011;68622;53.128;17.966;2023-03-26T05:56:08;9.10;;;3.10;;
76136;SDS011;68622;53.128;17.966;2023-03-26T05:59:08;5.90;;;2.10;;
76136;SDS011;68622;53.128;17.966;2023-03-26T06:01:53;5.80;;;2.50;;
76136;SDS011;68622;53.128;17.966;2023-03-26T06:04:34;6.70;;;2.20;;
76136;SDS011;68622;53.128;17.966;2023-03-26T06:07:41;5.80;;;2.10;;
76136;SDS011;68622;53.128;17.966;2023-03-26T06:10:16;7.10;;;2.40;;
76136;SDS011;68622;53.128;17.966;2023-03-26T06:12:44;7.20;;;2.20;;
76136;SDS011;68622;53.128;17.966;2023-03-26T06:15:11;6.90;;;2.30;;
76136;SDS011;68622;53.128;17.966;2023-03-26T06:17:47;6.70;;;2.10;;
76136;SDS011;68622;53.128;17.966;2023-03-26T06:20:22;5.60;;;2.20;;
76136;SDS011;68622;53.128;17.966;2023-03-26T06:22:51;5.60;;;2.20;;
76136;SDS011;68622;53.128;17.966;2023-03-26T06:25:36;5.40;;;1.60;;
76136;SDS011;68622;53.128;17.966;2023-03-26T06:28:07;6.60;;;2.40;;
76136;SDS011;68622;53.128;17.966;2023-03-26T06:31:02;6.40;;;1.90;;
76136;SDS011;68622;53.128;17.966;2023-03-26T06:33:34;6.30;;;1.70;;
76136;SDS011;68622;53.128;17.966;2023-03-26T06:36:01;6.00;;;1.80;;
76136;SDS011;68622;53.128;17.966;2023-03-26T06:38:27;4.10;;;0.90;;
76136;SDS011;68622;53.128;17.966;2023-03-26T06:41:00;5.10;;;1.50;;
76136;SDS011;68622;53.128;17.966;2023-03-26T06:43:27;5.30;;;1.30;;
76136;SDS011;68622;53.128;17.966;2023-03-26T06:46:16;5.90;;;1.70;;
76136;SDS011;68622;53.128;17.966;2023-03-26T06:48:52;5.50;;;1.40;;
76136;SDS011;68622;53.128;17.966;2023-03-26T06:51:37;5.60;;;1.50;;
76136;SDS011;68622;53.128;17.966;2023-03-26T06:54:24;8.60;;;1.90;;
76136;SDS011;68622;53.128;17.966;2023-03-26T06:56:55;7.20;;;2.20;;
76136;SDS011;68622;53.128;17.966;2023-03-26T06:59:46;7.50;;;2.70;;
76136;SDS011;68622;53.128;17.966;2023-03-26T07:02:45;6.10;;;2.60;;
76136;SDS011;68622;53.128;17.966;2023-03-26T07:05:31;5.90;;;1.60;;
76136;SDS011;68622;53.128;17.966;2023-03-26T07:08:16;6.10;;;1.70;;
76136;SDS011;68622;53.128;17.966;2023-03-26T07:11:01;6.70;;;2.00;;
76136;SDS011;68622;53.128;17.966;2023-03-26T07:13:54;7.10;;;1.40;;
76136;SDS011;68622;53.128;17.966;2023-03-26T07:16:50;8.00;;;2.10;;
76136;SDS011;68622;53.128;17.966;2023-03-26T07:19:37;6.50;;;1.80;;
76136;SDS011;68622;53.128;17.966;2023-03-26T07:22:04;5.80;;;1.40;;
76136;SDS011;68622;53.128;17.966;2023-03-26T07:24:50;6.80;;;1.50;;
76136;SDS011;68622;53.128;17.966;2023-03-26T07:27:59;4.80;;;1.30;;
76136;SDS011;68622;53.128;17.966;2023-03-26T07:31:09;6.20;;;1.50;;
76136;SDS011;68622;53.128;17.966;2023-03-26T07:46:09;7.20;;;1.60;;
76136;SDS011;68622;53.128;17.966;2023-03-26T07:48:46;8.60;;;2.40;;
76136;SDS011;68622;53.128;17.966;2023-03-26T07:51:19;5.50;;;1.40;;
76136;SDS011;68622;53.128;17.966;2023-03-26T07:54:02;4.60;;;1.10;;
76136;SDS011;68622;53.128;17.966;2023-03-26T07:56:41;4.00;;;0.90;;
76136;SDS011;68622;53.128;17.966;2023-03-26T08:05:34;5.40;;;1.50;;
76136;SDS011;68622;53.128;17.966;2023-03-26T08:09:06;5.60;;;1.50;;
76136;SDS011;68622;53.128;17.966;2023-03-26T08:11:48;8.00;;;1.20;;
76136;SDS011;68622;53.128;17.966;2023-03-26T08:20:16;5.80;;;1.90;;
76136;SDS011;68622;53.128;17.966;2023-03-26T08:22:54;6.00;;;1.40;;
76136;SDS011;68622;53.128;17.966;2023-03-26T08:25:34;5.50;;;1.20;;
76136;SDS011;68622;53.128;17.966;2023-03-26T08:30:54;4.80;;;1.10;;
76136;SDS011;68622;53.128;17.966;2023-03-26T08:33:21;3.80;;;0.80;;
76136;SDS011;68622;53.128;17.966;2023-03-26T08:35:52;2.80;;;0.60;;
76136;SDS011;68622;53.128;17.966;2023-03-26T08:38:19;3.40;;;0.90;;
76136;SDS011;68622;53.128;17.966;2023-03-26T09:06:26;7.70;;;2.50;;
76136;SDS011;68622;53.128;17.966;2023-03-26T09:09:36;4.30;;;1.40;;
76136;SDS011;68622;53.128;17.966;2023-03-26T09:17:55;4.10;;;1.20;;
76136;SDS011;68622;53.128;17.966;2023-03-26T09:21:20;6.20;;;1.50;;
76136;SDS011;68622;53.128;17.966;2023-03-26T09:24:20;4.80;;;1.30;;
76136;SDS011;68622;53.128;17.966;2023-03-26T09:27:18;5.60;;;1.60;;
76136;SDS011;68622;53.128;17.966;2023-03-26T09:35:51;8.00;;;2.90;;
76136;SDS011;68622;53.128;17.966;2023-03-26T09:41:24;8.50;;;2.70;;
76136;SDS011;68622;53.128;17.966;2023-03-26T09:50:11;8.30;;;2.50;;
76136;SDS011;68622;53.128;17.966;2023-03-26T09:58:37;5.80;;;1.40;;
76136;SDS011;68622;53.128;17.966;2023-03-26T10:01:38;11.00;;;2.50;;
76136;SDS011;68622;53.128;17.966;2023-03-26T10:12:56;8.30;;;2.70;;
76136;SDS011;68622;53.128;17.966;2023-03-26T10:15:35;7.00;;;2.40;;
76136;SDS011;68622;53.128;17.966;2023-03-26T10:18:35;6.50;;;2.00;;
76136;SDS011;68622;53.128;17.966;2023-03-26T10:21:52;7.20;;;1.90;;
76136;SDS011;68622;53.128;17.966;2023-03-26T10:24:35;7.40;;;1.90;;
76136;SDS011;68622;53.128;17.966;2023-03-26T10:27:35;6.40;;;2.00;;
76136;SDS011;68622;53.128;17.966;2023-03-26T10:30:34;8.50;;;2.10;;
76136;SDS011;68622;53.128;17.966;2023-03-26T10:36:10;6.20;;;1.60;;
76136;SDS011;68622;53.128;17.966;2023-03-26T10:42:09;6.40;;;1.90;;
76136;SDS011;68622;53.128;17.966;2023-03-26T10:47:52;5.50;;;1.30;;
76136;SDS011;68622;53.128;17.966;2023-03-26T10:53:42;4.70;;;1.30;;
76136;SDS011;68622;53.128;17.966;2023-03-26T10:56:27;5.70;;;1.80;;
76136;SDS011;68622;53.128;17.966;2023-03-26T10:58:58;6.00;;;1.40;;
76136;SDS011;68622;53.128;17.966;2023-03-26T11:01:42;7.10;;;1.30;;
76136;SDS011;68622;53.128;17.966;2023-03-26T11:10:05;4.80;;;1.10;;
76136;SDS011;68622;53.128;17.966;2023-03-26T11:12:56;3.30;;;0.60;;
76136;SDS011;68622;53.128;17.966;2023-03-26T11:15:41;4.70;;;1.10;;
76136;SDS011;68622;53.128;17.966;2023-03-26T11:18:20;4.60;;;1.10;;
76136;SDS011;68622;53.128;17.966;2023-03-26T11:26:24;8.90;;;2.10;;
76136;SDS011;68622;53.128;17.966;2023-03-26T11:34:42;11.10;;;2.90;;
76136;SDS011;68622;53.128;17.966;2023-03-26T11:37:24;9.10;;;2.50;;
76136;SDS011;68622;53.128;17.966;2023-03-26T11:39:59;9.40;;;2.60;;
76136;SDS011;68622;53.128;17.966;2023-03-26T11:42:31;6.60;;;2.20;;
76136;SDS011;68622;53.128;17.966;2023-03-26T11:44:59;7.40;;;2.90;;
76136;SDS011;68622;53.128;17.966;2023-03-26T11:47:39;8.10;;;2.40;;
76136;SDS011;68622;53.128;17.966;2023-03-26T11:50:15;7.90;;;2.20;;
76136;SDS011;68622;53.128;17.966;2023-03-26T11:52:48;8.30;;;1.80;;
76136;SDS011;68622;53.128;17.966;2023-03-26T11:55:15;8.20;;;1.90;;
76136;SDS011;68622;53.128;17.966;2023-03-26T11:57:44;5.00;;;1.10;;
76136;SDS011;68622;53.128;17.966;2023-03-26T12:00:16;4.80;;;0.90;;
76136;SDS011;68622;53.128;17.966;2023-03-26T12:02:46;6.30;;;2.70;;
76136;SDS011;68622;53.128;17.966;2023-03-26T12:07:53;6.30;;;2.20;;
76136;SDS011;68622;53.128;17.966;2023-03-26T12:10:24;4.80;;;1.40;;
76136;SDS011;68622;53.128;17.966;2023-03-26T12:12:53;5.80;;;1.40;;
76136;SDS011;68622;53.128;17.966;2023-03-26T12:15:23;7.60;;;1.60;;
76136;SDS011;68622;53.128;17.966;2023-03-26T12:17:52;5.90;;;1.50;;
76136;SDS011;68622;53.128;17.966;2023-03-26T12:22:55;6.60;;;1.70;;
76136;SDS011;68622;53.128;17.966;2023-03-26T12:27:59;6.30;;;1.90;;
76136;SDS011;68622;53.128;17.966;2023-03-26T12:30:31;6.90;;;2.20;;
76136;SDS011;68622;53.128;17.966;2023-03-26T12:33:00;4.80;;;1.20;;
76136;SDS011;68622;53.128;17.966;2023-03-26T12:35:31;4.30;;;1.20;;
76136;SDS011;68622;53.128;17.966;2023-03-26T12:41:14;5.10;;;1.30;;
76136;SDS011;68622;53.128;17.966;2023-03-26T12:43:46;5.20;;;1.40;;
76136;SDS011;68622;53.128;17.966;2023-03-26T12:46:19;6.30;;;1.70;;
76136;SDS011;68622;53.128;17.966;2023-03-26T12:48:53;5.40;;;1.30;;
76136;SDS011;68622;53.128;17.966;2023-03-26T12:57:03;5.70;;;1.30;;
76136;SDS011;68622;53.128;17.966;2023-03-26T13:08:26;5.10;;;1.40;;
76136;SDS011;68622;53.128;17.966;2023-03-26T13:11:10;5.90;;;1.20;;
76136;SDS011;68622;53.128;17.966;2023-03-26T13:14:07;4.50;;;0.90;;
76136;SDS011;68622;53.128;17.966;2023-03-26T13:20:32;4.80;;;1.10;;
76136;SDS011;68622;53.128;17.966;2023-03-26T13:26:30;6.30;;;2.00;;
76136;SDS011;68622;53.128;17.966;2023-03-26T13:29:18;5.40;;;1.50;;
76136;SDS011;68622;53.128;17.966;2023-03-26T13:31:54;6.50;;;1.50;;
76136;SDS011;68622;53.128;17.966;2023-03-26T13:34:29;5.10;;;1.20;;
76136;SDS011;68622;53.128;17.966;2023-03-26T13:39:52;6.40;;;1.40;;
76136;SDS011;68622;53.128;17.966;2023-03-26T13:42:36;6.90;;;1.50;;
76136;SDS011;68622;53.128;17.966;2023-03-26T13:45:34;5.50;;;1.30;;
76136;SDS011;68622;53.128;17.966;2023-03-26T13:48:30;4.60;;;1.30;;
76136;SDS011;68622;53.128;17.966;2023-03-26T13:56:45;6.80;;;1.80;;
76136;SDS011;68622;53.128;17.966;2023-03-26T14:01:55;6.60;;;2.50;;
76136;SDS011;68622;53.128;17.966;2023-03-26T14:04:45;7.60;;;1.80;;
76136;SDS011;68622;53.128;17.966;2023-03-26T14:07:19;9.80;;;2.70;;
76136;SDS011;68622;53.128;17.966;2023-03-26T14:09:58;8.10;;;2.40;;
76136;SDS011;68622;53.128;17.966;2023-03-26T14:15:28;5.60;;;1.50;;
76136;SDS011;68622;53.128;17.966;2023-03-26T14:32:16;4.20;;;1.10;;
76136;SDS011;68622;53.128;17.966;2023-03-26T14:35:11;6.60;;;1.60;;
76136;SDS011;68622;53.128;17.966;2023-03-26T17:24:27;16.50;;;7.20;;
76136;SDS011;68622;53.128;17.966;2023-03-26T17:27:48;19.70;;;8.90;;
76136;SDS011;68622;53.128;17.966;2023-03-26T17:30:25;17.40;;;7.30;;
76136;SDS011;68622;53.128;17.966;2023-03-26T17:41:07;22.30;;;9.00;;
76136;SDS011;68622;53.128;17.966;2023-03-26T17:43:46;22.30;;;9.10;;
76136;SDS011;68622;53.128;17.966;2023-03-26T17:46:32;26.20;;;9.60;;
76136;SDS011;68622;53.128;17.966;2023-03-26T17:49:21;21.80;;;8.50;;
76136;SDS011;68622;53.128;17.966;2023-03-26T17:51:59;19.70;;;8.00;;
76136;SDS011;68622;53.128;17.966;2023-03-26T17:54:42;21.50;;;8.30;;
76136;SDS011;68622;53.128;17.966;2023-03-26T18:00:13;21.40;;;9.70;;
76136;SDS011;68622;53.128;17.966;2023-03-26T18:02:45;22.20;;;10.10;;
76136;SDS011;68622;53.128;17.966;2023-03-26T18:05:25;18.00;;;8.50;;
76136;SDS011;68622;53.128;17.966;2023-03-26T18:08:10;24.40;;;9.70;;
76136;SDS011;68622;53.128;17.966;2023-03-26T18:16:24;20.30;;;8.90;;
76136;SDS011;68622;53.128;17.966;2023-03-26T18:18:59;24.80;;;10.00;;
76136;SDS011;68622;53.128;17.966;2023-03-26T18:21:36;20.80;;;9.90;;
76136;SDS011;68622;53.128;17.966;2023-03-26T18:24:12;21.90;;;8.60;;
76136;SDS011;68622;53.128;17.966;2023-03-26T18:26:42;21.60;;;10.00;;
76136;SDS011;68622;53.128;17.966;2023-03-26T18:31:59;27.30;;;12.10;;
76136;SDS011;68622;53.128;17.966;2023-03-26T18:34:36;28.20;;;11.50;;
76136;SDS011;68622;53.128;17.966;2023-03-26T18:42:28;25.60;;;10.50;;
76136;SDS011;68622;53.128;17.966;2023-03-26T18:44:57;32.30;;;14.30;;
76136;SDS011;68622;53.128;17.966;2023-03-26T18:47:26;36.50;;;16.10;;
76136;SDS011;68622;53.128;17.966;2023-03-26T18:49:55;42.10;;;19.70;;
76136;SDS011;68622;53.128;17.966;2023-03-26T18:52:24;44.90;;;20.90;;
76136;SDS011;68622;53.128;17.966;2023-03-26T18:54:54;41.90;;;19.80;;
76136;SDS011;68622;53.128;17.966;2023-03-26T18:57:25;37.20;;;17.10;;
76136;SDS011;68622;53.128;17.966;2023-03-26T18:59:54;25.10;;;11.70;;
76136;SDS011;68622;53.128;17.966;2023-03-26T19:02:34;28.90;;;11.90;;
76136;SDS011;68622;53.128;17.966;2023-03-26T19:05:01;31.10;;;13.00;;
76136;SDS011;68622;53.128;17.966;2023-03-26T19:07:28;30.90;;;12.30;;
76136;SDS011;68622;53.128;17.966;2023-03-26T19:09:58;38.20;;;11.80;;
76136;SDS011;68622;53.128;17.966;2023-03-26T19:12:34;23.30;;;9.40;;
76136;SDS011;68622;53.128;17.966;2023-03-26T19:15:10;18.10;;;7.30;;
76136;SDS011;68622;53.128;17.966;2023-03-26T19:17:43;16.00;;;6.00;;
76136;SDS011;68622;53.128;17.966;2023-03-26T19:20:32;19.90;;;7.50;;
76136;SDS011;68622;53.128;17.966;2023-03-26T19:23:06;15.30;;;5.40;;
76136;SDS011;68622;53.128;17.966;2023-03-26T19:25:39;14.20;;;4.20;;
76136;SDS011;68622;53.128;17.966;2023-03-26T19:28:13;17.00;;;5.70;;
76136;SDS011;68622;53.128;17.966;2023-03-26T19:30:43;16.20;;;5.50;;
76136;SDS011;68622;53.128;17.966;2023-03-26T19:33:16;19.70;;;5.20;;
76136;SDS011;68622;53.128;17.966;2023-03-26T19:35:52;19.00;;;6.20;;
76136;SDS011;68622;53.128;17.966;2023-03-26T19:38:36;21.00;;;5.30;;
76136;SDS011;68622;53.128;17.966;2023-03-26T19:41:24;15.30;;;5.50;;
76136;SDS011;68622;53.128;17.966;2023-03-26T19:43:57;16.50;;;3.80;;
76136;SDS011;68622;53.128;17.966;2023-03-26T19:46:27;20.50;;;4.50;;
76136;SDS011;68622;53.128;17.966;2023-03-26T19:48:57;14.20;;;4.40;;
76136;SDS011;68622;53.128;17.966;2023-03-26T19:51:30;15.10;;;3.30;;
76136;SDS011;68622;53.128;17.966;2023-03-26T19:54:00;17.50;;;3.70;;
76136;SDS011;68622;53.128;17.966;2023-03-26T19:56:37;12.40;;;3.70;;
76136;SDS011;68622;53.128;17.966;2023-03-26T19:59:04;15.40;;;3.10;;
76136;SDS011;68622;53.128;17.966;2023-03-26T20:01:31;16.10;;;3.30;;
76136;SDS011;68622;53.128;17.966;2023-03-26T20:04:02;26.20;;;5.00;;
76136;SDS011;68622;53.128;17.966;2023-03-26T20:06:31;12.70;;;3.30;;
76136;SDS011;68622;53.128;17.966;2023-03-26T20:09:01;10.60;;;3.10;;
76136;SDS011;68622;53.128;17.966;2023-03-26T20:11:31;19.80;;;4.00;;
76136;SDS011;68622;53.128;17.966;2023-03-26T20:14:06;11.90;;;3.50;;
76136;SDS011;68622;53.128;17.966;2023-03-26T20:16:38;15.90;;;2.90;;
76136;SDS011;68622;53.128;17.966;2023-03-26T20:19:04;18.00;;;3.80;;
76136;SDS011;68622;53.128;17.966;2023-03-26T20:21:32;21.60;;;3.50;;
76136;SDS011;68622;53.128;17.966;2023-03-26T20:24:00;14.90;;;3.70;;
76136;SDS011;68622;53.128;17.966;2023-03-26T20:26:26;14.50;;;3.40;;
76136;SDS011;68622;53.128;17.966;2023-03-26T20:28:53;14.60;;;3.30;;
76136;SDS011;68622;53.128;17.966;2023-03-26T20:31:23;27.40;;;5.10;;
76136;SDS011;68622;53.128;17.966;2023-03-26T20:33:52;17.00;;;5.50;;
76136;SDS011;68622;53.128;17.966;2023-03-26T20:36:25;21.60;;;5.90;;
76136;SDS011;68622;53.128;17.966;2023-03-26T20:38:52;19.80;;;4.70;;
76136;SDS011;68622;53.128;17.966;2023-03-26T20:41:26;16.60;;;5.00;;
76136;SDS011;68622;53.128;17.966;2023-03-26T20:43:53;15.20;;;3.90;;
76136;SDS011;68622;53.128;17.966;2023-03-26T20:46:23;18.80;;;5.20;;
76136;SDS011;68622;53.128;17.966;2023-03-26T20:48:51;31.80;;;8.80;;
76136;SDS011;68622;53.128;17.966;2023-03-26T20:51:18;37.30;;;10.30;;
76136;SDS011;68622;53.128;17.966;2023-03-26T20:53:45;44.70;;;12.80;;
76136;SDS011;68622;53.128;17.966;2023-03-26T20:56:14;63.50;;;18.70;;
76136;SDS011;68622;53.128;17.966;2023-03-26T20:58:43;55.20;;;15.30;;
76136;SDS011;68622;53.128;17.966;2023-03-26T21:01:12;42.80;;;12.70;;
76136;SDS011;68622;53.128;17.966;2023-03-26T21:03:39;34.90;;;10.10;;
76136;SDS011;68622;53.128;17.966;2023-03-26T21:06:07;34.00;;;7.70;;
76136;SDS011;68622;53.128;17.966;2023-03-26T21:08:40;33.60;;;7.80;;
76136;SDS011;68622;53.128;17.966;2023-03-26T21:11:22;34.70;;;8.70;;
76136;SDS011;68622;53.128;17.966;2023-03-26T21:14:14;36.40;;;8.90;;
76136;SDS011;68622;53.128;17.966;2023-03-26T21:16:42;41.20;;;9.30;;
76136;SDS011;68622;53.128;17.966;2023-03-26T21:19:09;40.30;;;8.20;;
76136;SDS011;68622;53.128;17.966;2023-03-26T21:21:39;44.70;;;9.60;;
76136;SDS011;68622;53.128;17.966;2023-03-26T21:27:23;54.60;;;14.40;;
76136;SDS011;68622;53.128;17.966;2023-03-26T21:30:10;85.30;;;20.10;;
76136;SDS011;68622;53.128;17.966;2023-03-26T21:32:41;63.20;;;17.50;;
76136;SDS011;68622;53.128;17.966;2023-03-26T21:35:10;58.90;;;16.40;;
76136;SDS011;68622;53.128;17.966;2023-03-26T21:37:39;79.00;;;24.20;;
76136;SDS011;68622;53.128;17.966;2023-03-26T21:40:09;105.40;;;35.00;;
76136;SDS011;68622;53.128;17.966;2023-03-26T21:42:40;111.80;;;38.80;;
76136;SDS011;68622;53.128;17.966;2023-03-26T21:45:12;110.20;;;36.40;;
76136;SDS011;68622;53.128;17.966;2023-03-26T21:47:40;112.30;;;36.90;;
76136;SDS011;68622;53.128;17.966;2023-03-26T21:50:07;145.70;;;45.70;;